sensor_id;sensor_type;location;lat;lon;timestamp;pressure;altitude;pressure_sealevel;temperature;humidity
15678;BME280;7939;50.814;6.368;2022-10-31T00:01:10;100397.47;;;19.48;58.54
15678;BME280;7939;50.814;6.368;2022-10-31T00:03:37;100409.59;;;19.47;58.90
15678;BME280;7939;50.814;6.368;2022-10-31T00:06:03;100399.22;;;19.47;58.50
15678;BME280;7939;50.814;6.368;2022-10-31T00:08:30;100400.97;;;19.47;58.62
15678;BME280;7939;50.814;6.368;2022-10-31T00:10:57;100386.31;;;19.46;59.01
15678;BME280;7939;50.814;6.368;2022-10-31T00:13:24;100401.88;;;19.46;58.60
15678;BME280;7939;50.814;6.368;2022-10-31T00:15:51;100415.72;;;19.45;58.52
15678;BME280;7939;50.814;6.368;2022-10-31T00:18:18;100433.88;;;19.45;58.71
15678;BME280;7939;50.814;6.368;2022-10-31T00:20:44;100434.78;;;19.44;58.91
15678;BME280;7939;50.814;6.368;2022-10-31T00:23:11;100426.16;;;19.43;58.68
15678;BME280;7939;50.814;6.368;2022-10-31T00:25:39;100418.38;;;19.43;58.76
15678;BME280;7939;50.814;6.368;2022-10-31T00:28:07;100418.38;;;19.43;58.57
15678;BME280;7939;50.814;6.368;2022-10-31T00:30:36;100412.34;;;19.43;58.56
15678;BME280;7939;50.814;6.368;2022-10-31T00:33:03;100415.78;;;19.43;58.77
15678;BME280;7939;50.814;6.368;2022-10-31T00:35:30;100420.97;;;19.41;58.87
15678;BME280;7939;50.814;6.368;2022-10-31T00:37:56;100416.69;;;19.40;58.64
15678;BME280;7939;50.814;6.368;2022-10-31T00:40:23;100420.13;;;19.41;59.46
15678;BME280;7939;50.814;6.368;2022-10-31T00:42:50;100422.72;;;19.41;59.48
15678;BME280;7939;50.814;6.368;2022-10-31T00:45:16;100411.50;;;19.40;59.24
15678;BME280;7939;50.814;6.368;2022-10-31T00:47:44;100411.50;;;19.40;58.96
15678;BME280;7939;50.814;6.368;2022-10-31T00:50:11;100410.66;;;19.40;58.76
15678;BME280;7939;50.814;6.368;2022-10-31T00:52:37;100407.22;;;19.39;59.03
15678;BME280;7939;50.814;6.368;2022-10-31T00:55:04;100404.63;;;19.39;59.07
15678;BME280;7939;50.814;6.368;2022-10-31T00:57:31;100396.84;;;19.39;59.14
15678;BME280;7939;50.814;6.368;2022-10-31T00:59:58;100397.75;;;19.38;59.51
15678;BME280;7939;50.814;6.368;2022-10-31T01:02:25;100396.06;;;19.37;59.15
15678;BME280;7939;50.814;6.368;2022-10-31T01:04:53;100392.59;;;19.37;59.46
15678;BME280;7939;50.814;6.368;2022-10-31T01:07:19;100386.56;;;19.36;59.30
15678;BME280;7939;50.814;6.368;2022-10-31T01:09:46;100392.63;;;19.35;59.40
15678;BME280;7939;50.814;6.368;2022-10-31T01:12:13;100400.41;;;19.35;59.65
15678;BME280;7939;50.814;6.368;2022-10-31T01:14:42;100392.63;;;19.35;59.06
15678;BME280;7939;50.814;6.368;2022-10-31T01:17:09;100390.94;;;19.34;59.24
15678;BME280;7939;50.814;6.368;2022-10-31T01:19:36;100387.50;;;19.34;59.78
15678;BME280;7939;50.814;6.368;2022-10-31T01:22:04;100384.91;;;19.34;59.91
15678;BME280;7939;50.814;6.368;2022-10-31T01:24:31;100378.00;;;19.33;59.67
15678;BME280;7939;50.814;6.368;2022-10-31T01:26:58;100380.59;;;19.33;59.22
15678;BME280;7939;50.814;6.368;2022-10-31T01:29:24;100376.31;;;19.32;59.17
15678;BME280;7939;50.814;6.368;2022-10-31T01:31:51;100380.66;;;19.31;59.66
15678;BME280;7939;50.814;6.368;2022-10-31T01:34:18;100392.72;;;19.32;59.50
15678;BME280;7939;50.814;6.368;2022-10-31T01:36:45;100389.28;;;19.32;59.64
15678;BME280;7939;50.814;6.368;2022-10-31T01:39:18;100386.69;;;19.32;59.72
15678;BME280;7939;50.814;6.368;2022-10-31T01:41:46;100382.41;;;19.31;59.52
15678;BME280;7939;50.814;6.368;2022-10-31T01:44:50;100375.53;;;19.30;59.04
15678;BME280;7939;50.814;6.368;2022-10-31T01:47:19;100376.38;;;19.29;59.74
15678;BME280;7939;50.814;6.368;2022-10-31T01:49:49;100376.44;;;19.27;58.94
15678;BME280;7939;50.814;6.368;2022-10-31T01:52:21;100381.63;;;19.27;59.39
15678;BME280;7939;50.814;6.368;2022-10-31T01:54:55;100383.34;;;19.27;59.51
15678;BME280;7939;50.814;6.368;2022-10-31T01:57:24;100385.09;;;19.26;59.19
15678;BME280;7939;50.814;6.368;2022-10-31T01:59:55;100383.41;;;19.25;59.06
15678;BME280;7939;50.814;6.368;2022-10-31T02:02:25;100388.59;;;19.25;59.54
15678;BME280;7939;50.814;6.368;2022-10-31T02:04:52;100374.78;;;19.25;59.79
15678;BME280;7939;50.814;6.368;2022-10-31T02:07:23;100385.16;;;19.25;59.81
15678;BME280;7939;50.814;6.368;2022-10-31T02:09:53;100381.72;;;19.24;59.79
15678;BME280;7939;50.814;6.368;2022-10-31T02:12:21;100375.69;;;19.24;59.52
15678;BME280;7939;50.814;6.368;2022-10-31T02:14:47;100379.97;;;19.23;59.71
15678;BME280;7939;50.814;6.368;2022-10-31T02:17:14;100376.53;;;19.23;59.89
15678;BME280;7939;50.814;6.368;2022-10-31T02:19:49;100378.28;;;19.22;59.47
15678;BME280;7939;50.814;6.368;2022-10-31T02:22:25;100374.00;;;19.21;59.97
15678;BME280;7939;50.814;6.368;2022-10-31T02:25:09;100372.31;;;19.20;59.52
15678;BME280;7939;50.814;6.368;2022-10-31T02:28:00;100379.22;;;19.20;59.78
15678;BME280;7939;50.814;6.368;2022-10-31T02:30:37;100380.09;;;19.20;59.56
15678;BME280;7939;50.814;6.368;2022-10-31T02:33:16;100374.94;;;19.19;59.68
15678;BME280;7939;50.814;6.368;2022-10-31T02:35:55;100368.06;;;19.18;59.72
15678;BME280;7939;50.814;6.368;2022-10-31T02:38:36;100371.50;;;19.18;59.71
15678;BME280;7939;50.814;6.368;2022-10-31T02:41:10;100365.50;;;19.16;59.48
15678;BME280;7939;50.814;6.368;2022-10-31T02:43:47;100380.19;;;19.17;59.56
15678;BME280;7939;50.814;6.368;2022-10-31T02:46:23;100371.56;;;19.15;59.99
15678;BME280;7939;50.814;6.368;2022-10-31T02:48:56;100377.59;;;19.16;59.98
15678;BME280;7939;50.814;6.368;2022-10-31T02:51:25;100373.31;;;19.14;60.11
15678;BME280;7939;50.814;6.368;2022-10-31T02:53:52;100373.34;;;19.13;60.00
15678;BME280;7939;50.814;6.368;2022-10-31T02:56:19;100364.75;;;19.12;59.77
15678;BME280;7939;50.814;6.368;2022-10-31T02:58:50;100363.00;;;19.13;59.86
15678;BME280;7939;50.814;6.368;2022-10-31T03:01:29;100363.88;;;19.12;59.82
15678;BME280;7939;50.814;6.368;2022-10-31T03:04:08;100361.31;;;19.10;59.59
15678;BME280;7939;50.814;6.368;2022-10-31T03:06:41;100369.09;;;19.10;59.64
15678;BME280;7939;50.814;6.368;2022-10-31T03:09:21;100369.09;;;19.10;60.03
15678;BME280;7939;50.814;6.368;2022-10-31T03:11:55;100369.13;;;19.09;59.75
15678;BME280;7939;50.814;6.368;2022-10-31T03:14:27;100365.69;;;19.08;59.61
15678;BME280;7939;50.814;6.368;2022-10-31T03:17:01;100357.97;;;19.07;60.15
15678;BME280;7939;50.814;6.368;2022-10-31T03:19:35;100370.91;;;19.07;59.51
15678;BME280;7939;50.814;6.368;2022-10-31T03:22:12;100368.38;;;19.05;59.65
15678;BME280;7939;50.814;6.368;2022-10-31T03:24:43;100358.88;;;19.04;60.11
15678;BME280;7939;50.814;6.368;2022-10-31T03:27:12;100352.84;;;19.04;60.18
15678;BME280;7939;50.814;6.368;2022-10-31T03:29:42;100344.28;;;19.02;59.39
15678;BME280;7939;50.814;6.368;2022-10-31T03:32:12;100344.28;;;19.02;59.53
15678;BME280;7939;50.814;6.368;2022-10-31T03:34:42;100349.47;;;19.02;59.51
15678;BME280;7939;50.814;6.368;2022-10-31T03:37:12;100356.38;;;19.01;59.65
15678;BME280;7939;50.814;6.368;2022-10-31T03:39:42;100367.63;;;19.00;59.86
15678;BME280;7939;50.814;6.368;2022-10-31T03:42:14;100365.03;;;19.00;59.87
15678;BME280;7939;50.814;6.368;2022-10-31T03:44:45;100361.59;;;19.00;60.15
15678;BME280;7939;50.814;6.368;2022-10-31T03:47:13;100358.16;;;18.99;60.28
15678;BME280;7939;50.814;6.368;2022-10-31T03:49:41;100362.50;;;18.99;60.41
15678;BME280;7939;50.814;6.368;2022-10-31T03:52:15;100369.44;;;18.98;60.24
15678;BME280;7939;50.814;6.368;2022-10-31T03:54:46;100358.19;;;18.98;60.14
15678;BME280;7939;50.814;6.368;2022-10-31T03:57:19;100354.75;;;18.97;59.68
15678;BME280;7939;50.814;6.368;2022-10-31T03:59:51;100354.75;;;18.97;60.25
15678;BME280;7939;50.814;6.368;2022-10-31T04:02:22;100349.63;;;18.96;59.94
15678;BME280;7939;50.814;6.368;2022-10-31T04:04:54;100353.94;;;18.95;60.04
15678;BME280;7939;50.814;6.368;2022-10-31T04:07:21;100359.97;;;18.96;59.85
15678;BME280;7939;50.814;6.368;2022-10-31T04:09:51;100358.28;;;18.95;60.42
15678;BME280;7939;50.814;6.368;2022-10-31T04:12:20;100358.34;;;18.92;59.68
15678;BME280;7939;50.814;6.368;2022-10-31T04:14:50;100361.81;;;18.92;59.81
15678;BME280;7939;50.814;6.368;2022-10-31T04:17:21;100354.03;;;18.92;59.72
15678;BME280;7939;50.814;6.368;2022-10-31T04:19:48;100362.66;;;18.91;59.72
15678;BME280;7939;50.814;6.368;2022-10-31T04:22:16;100356.63;;;18.91;59.82
15678;BME280;7939;50.814;6.368;2022-10-31T04:24:43;100345.44;;;18.90;59.81
15678;BME280;7939;50.814;6.368;2022-10-31T04:27:09;100344.59;;;18.90;60.40
15678;BME280;7939;50.814;6.368;2022-10-31T04:29:37;100342.00;;;18.90;59.78
15678;BME280;7939;50.814;6.368;2022-10-31T04:32:03;100344.63;;;18.88;60.35
15678;BME280;7939;50.814;6.368;2022-10-31T04:34:30;100340.34;;;18.87;59.54
15678;BME280;7939;50.814;6.368;2022-10-31T04:36:57;100330.88;;;18.86;59.67
15678;BME280;7939;50.814;6.368;2022-10-31T04:39:24;100341.25;;;18.86;59.83
15678;BME280;7939;50.814;6.368;2022-10-31T04:41:51;100341.25;;;18.84;59.73
15678;BME280;7939;50.814;6.368;2022-10-31T04:44:18;100338.66;;;18.84;59.62
15678;BME280;7939;50.814;6.368;2022-10-31T04:46:45;100336.97;;;18.83;60.25
15678;BME280;7939;50.814;6.368;2022-10-31T04:49:11;100334.38;;;18.83;60.48
15678;BME280;7939;50.814;6.368;2022-10-31T04:51:38;100330.94;;;18.83;59.95
15678;BME280;7939;50.814;6.368;2022-10-31T04:54:04;100332.69;;;18.82;60.32
15678;BME280;7939;50.814;6.368;2022-10-31T04:56:32;100330.16;;;18.81;60.15
15678;BME280;7939;50.814;6.368;2022-10-31T04:58:59;100333.56;;;18.81;60.01
15678;BME280;7939;50.814;6.368;2022-10-31T05:01:26;100331.00;;;18.81;60.46
15678;BME280;7939;50.814;6.368;2022-10-31T05:03:53;100331.88;;;18.80;59.96
15678;BME280;7939;50.814;6.368;2022-10-31T05:06:19;100322.41;;;18.79;60.41
15678;BME280;7939;50.814;6.368;2022-10-31T05:08:46;100316.34;;;18.79;60.77
15678;BME280;7939;50.814;6.368;2022-10-31T05:11:12;100321.53;;;18.79;60.43
15678;BME280;7939;50.814;6.368;2022-10-31T05:13:40;100314.66;;;18.79;60.33
15678;BME280;7939;50.814;6.368;2022-10-31T05:16:07;100315.50;;;18.78;60.28
15678;BME280;7939;50.814;6.368;2022-10-31T05:18:33;100321.53;;;18.79;60.22
15678;BME280;7939;50.814;6.368;2022-10-31T05:21:00;100312.94;;;18.78;60.40
15678;BME280;7939;50.814;6.368;2022-10-31T05:23:27;100320.69;;;18.78;60.13
15678;BME280;7939;50.814;6.368;2022-10-31T05:25:54;100315.56;;;18.77;60.56
15678;BME280;7939;50.814;6.368;2022-10-31T05:28:21;100310.38;;;18.77;60.57
15678;BME280;7939;50.814;6.368;2022-10-31T05:30:49;100311.28;;;18.76;60.72
15678;BME280;7939;50.814;6.368;2022-10-31T05:33:15;100310.44;;;18.75;60.33
15678;BME280;7939;50.814;6.368;2022-10-31T05:35:42;100304.41;;;18.75;60.27
15678;BME280;7939;50.814;6.368;2022-10-31T05:38:09;100304.41;;;18.75;60.13
15678;BME280;7939;50.814;6.368;2022-10-31T05:40:36;100306.16;;;18.73;60.29
15678;BME280;7939;50.814;6.368;2022-10-31T05:43:02;100305.31;;;18.72;60.57
15678;BME280;7939;50.814;6.368;2022-10-31T05:45:29;100308.75;;;18.73;60.30
15678;BME280;7939;50.814;6.368;2022-10-31T05:47:58;100311.38;;;18.71;60.34
15678;BME280;7939;50.814;6.368;2022-10-31T05:50:26;100309.69;;;18.70;60.06
15678;BME280;7939;50.814;6.368;2022-10-31T05:52:54;100314.91;;;18.69;60.02
15678;BME280;7939;50.814;6.368;2022-10-31T05:55:21;100312.31;;;18.69;60.39
15678;BME280;7939;50.814;6.368;2022-10-31T05:57:48;100306.31;;;18.67;60.45
15678;BME280;7939;50.814;6.368;2022-10-31T06:00:15;100309.78;;;18.67;59.81
15678;BME280;7939;50.814;6.368;2022-10-31T06:02:41;100302.00;;;18.66;60.20
15678;BME280;7939;50.814;6.368;2022-10-31T06:05:10;100304.56;;;18.66;60.24
15678;BME280;7939;50.814;6.368;2022-10-31T06:07:37;100295.13;;;18.65;59.93
15678;BME280;7939;50.814;6.368;2022-10-31T06:10:05;100294.31;;;18.63;59.97
15678;BME280;7939;50.814;6.368;2022-10-31T06:12:33;100290.03;;;18.62;60.15
15678;BME280;7939;50.814;6.368;2022-10-31T06:15:03;100289.13;;;18.63;59.98
15678;BME280;7939;50.814;6.368;2022-10-31T06:17:31;100287.44;;;18.62;59.98
15678;BME280;7939;50.814;6.368;2022-10-31T06:19:57;100277.97;;;18.60;60.47
15678;BME280;7939;50.814;6.368;2022-10-31T06:22:25;100276.25;;;18.59;60.54
15678;BME280;7939;50.814;6.368;2022-10-31T06:24:52;100276.25;;;18.59;60.51
15678;BME280;7939;50.814;6.368;2022-10-31T06:27:19;100273.66;;;18.59;60.31
15678;BME280;7939;50.814;6.368;2022-10-31T06:29:46;100283.16;;;18.59;60.46
15678;BME280;7939;50.814;6.368;2022-10-31T06:32:13;100285.75;;;18.59;60.22
15678;BME280;7939;50.814;6.368;2022-10-31T06:34:40;100296.16;;;18.57;59.89
15678;BME280;7939;50.814;6.368;2022-10-31T06:37:07;100293.56;;;18.57;60.44
15678;BME280;7939;50.814;6.368;2022-10-31T06:39:36;100285.81;;;18.57;60.02
15678;BME280;7939;50.814;6.368;2022-10-31T06:42:03;100284.09;;;18.56;60.37
15678;BME280;7939;50.814;6.368;2022-10-31T06:44:30;100281.53;;;18.56;60.50
15678;BME280;7939;50.814;6.368;2022-10-31T06:46:57;100285.81;;;18.57;60.71
15678;BME280;7939;50.814;6.368;2022-10-31T06:49:24;100274.59;;;18.57;60.88
15678;BME280;7939;50.814;6.368;2022-10-31T06:51:51;100283.22;;;18.57;60.46
15678;BME280;7939;50.814;6.368;2022-10-31T06:54:17;100285.84;;;18.56;60.37
15678;BME280;7939;50.814;6.368;2022-10-31T06:56:46;100285.84;;;18.56;60.33
15678;BME280;7939;50.814;6.368;2022-10-31T06:59:13;100289.28;;;18.56;60.75
15678;BME280;7939;50.814;6.368;2022-10-31T07:01:39;100299.66;;;18.56;60.85
15678;BME280;7939;50.814;6.368;2022-10-31T07:04:08;100295.34;;;18.55;60.52
15678;BME280;7939;50.814;6.368;2022-10-31T07:06:35;100299.69;;;18.55;60.73
15678;BME280;7939;50.814;6.368;2022-10-31T07:09:01;100297.09;;;18.55;61.36
15678;BME280;7939;50.814;6.368;2022-10-31T07:11:28;100305.72;;;18.54;60.85
15678;BME280;7939;50.814;6.368;2022-10-31T07:13:56;100292.78;;;18.54;60.56
15678;BME280;7939;50.814;6.368;2022-10-31T07:16:23;100297.97;;;18.54;61.00
15678;BME280;7939;50.814;6.368;2022-10-31T07:18:50;100295.38;;;18.54;60.96
15678;BME280;7939;50.814;6.368;2022-10-31T07:21:16;100298.00;;;18.52;60.64
15678;BME280;7939;50.814;6.368;2022-10-31T07:23:43;100298.84;;;18.53;60.39
15678;BME280;7939;50.814;6.368;2022-10-31T07:26:10;100290.25;;;18.52;60.64
15678;BME280;7939;50.814;6.368;2022-10-31T07:28:36;100289.38;;;18.52;60.79
15678;BME280;7939;50.814;6.368;2022-10-31T07:31:04;100291.97;;;18.52;61.27
15678;BME280;7939;50.814;6.368;2022-10-31T07:33:31;100295.41;;;18.52;60.86
15678;BME280;7939;50.814;6.368;2022-10-31T07:35:59;100298.00;;;18.52;61.24
15678;BME280;7939;50.814;6.368;2022-10-31T07:38:26;100295.41;;;18.52;61.10
15678;BME280;7939;50.814;6.368;2022-10-31T07:40:53;100298.84;;;18.53;61.02
15678;BME280;7939;50.814;6.368;2022-10-31T07:43:20;100294.53;;;18.53;60.99
15678;BME280;7939;50.814;6.368;2022-10-31T07:45:51;100298.00;;;18.52;61.65
15678;BME280;7939;50.814;6.368;2022-10-31T07:48:19;100300.59;;;18.52;61.53
15678;BME280;7939;50.814;6.368;2022-10-31T07:50:46;100297.16;;;18.52;61.60
15678;BME280;7939;50.814;6.368;2022-10-31T07:53:13;100302.34;;;18.52;61.37
15678;BME280;7939;50.814;6.368;2022-10-31T07:55:41;100305.72;;;18.54;61.90
15678;BME280;7939;50.814;6.368;2022-10-31T07:58:09;100303.19;;;18.52;61.75
15678;BME280;7939;50.814;6.368;2022-10-31T08:00:37;100309.22;;;18.53;62.04
15678;BME280;7939;50.814;6.368;2022-10-31T08:03:06;100304.88;;;18.53;62.01
15678;BME280;7939;50.814;6.368;2022-10-31T08:05:34;100306.59;;;18.54;62.09
15678;BME280;7939;50.814;6.368;2022-10-31T08:08:01;100303.13;;;18.54;62.06
15678;BME280;7939;50.814;6.368;2022-10-31T08:10:28;100304.03;;;18.54;62.22
15678;BME280;7939;50.814;6.368;2022-10-31T08:12:56;100306.59;;;18.54;61.79
15678;BME280;7939;50.814;6.368;2022-10-31T08:15:23;100304.88;;;18.55;61.72
15678;BME280;7939;50.814;6.368;2022-10-31T08:17:50;100310.91;;;18.54;61.67
15678;BME280;7939;50.814;6.368;2022-10-31T08:20:16;100309.19;;;18.54;61.59
15678;BME280;7939;50.814;6.368;2022-10-31T08:22:52;100297.97;;;18.54;61.55
15678;BME280;7939;50.814;6.368;2022-10-31T08:25:18;100297.09;;;18.55;61.77
15678;BME280;7939;50.814;6.368;2022-10-31T08:27:48;100298.84;;;18.54;61.57
15678;BME280;7939;50.814;6.368;2022-10-31T08:30:15;100289.34;;;18.55;61.81
15678;BME280;7939;50.814;6.368;2022-10-31T08:32:42;100291.03;;;18.56;61.66
15678;BME280;7939;50.814;6.368;2022-10-31T08:35:08;100284.09;;;18.56;62.20
15678;BME280;7939;50.814;6.368;2022-10-31T08:37:35;100284.16;;;18.55;61.82
15678;BME280;7939;50.814;6.368;2022-10-31T08:40:04;100275.44;;;18.57;62.22
15678;BME280;7939;50.814;6.368;2022-10-31T08:42:31;100281.53;;;18.56;62.08
15678;BME280;7939;50.814;6.368;2022-10-31T08:44:58;100278.09;;;18.56;61.84
15678;BME280;7939;50.814;6.368;2022-10-31T08:47:25;100273.75;;;18.56;62.33
15678;BME280;7939;50.814;6.368;2022-10-31T08:49:53;100264.25;;;18.57;61.84
15678;BME280;7939;50.814;6.368;2022-10-31T08:52:22;100261.66;;;18.57;62.56
15678;BME280;7939;50.814;6.368;2022-10-31T08:54:49;100255.63;;;18.56;61.87
15678;BME280;7939;50.814;6.368;2022-10-31T08:57:17;100254.75;;;18.57;62.50
15678;BME280;7939;50.814;6.368;2022-10-31T08:59:44;100244.44;;;18.56;63.07
15678;BME280;7939;50.814;6.368;2022-10-31T09:02:10;100244.38;;;18.57;62.42
15678;BME280;7939;50.814;6.368;2022-10-31T09:04:37;100245.25;;;18.58;63.00
15678;BME280;7939;50.814;6.368;2022-10-31T09:07:04;100245.19;;;18.59;62.65
15678;BME280;7939;50.814;6.368;2022-10-31T09:09:30;100234.84;;;18.59;63.16
15678;BME280;7939;50.814;6.368;2022-10-31T09:11:57;100234.81;;;18.61;62.65
15678;BME280;7939;50.814;6.368;2022-10-31T09:14:25;100227.91;;;18.62;62.82
15678;BME280;7939;50.814;6.368;2022-10-31T09:16:52;100231.34;;;18.62;63.03
15678;BME280;7939;50.814;6.368;2022-10-31T09:19:18;100227.00;;;18.63;63.43
15678;BME280;7939;50.814;6.368;2022-10-31T09:21:45;100228.69;;;18.64;63.17
15678;BME280;7939;50.814;6.368;2022-10-31T09:24:12;100222.63;;;18.65;63.25
15678;BME280;7939;50.814;6.368;2022-10-31T09:26:38;100214.03;;;18.64;62.91
15678;BME280;7939;50.814;6.368;2022-10-31T09:29:05;100203.63;;;18.66;62.89
15678;BME280;7939;50.814;6.368;2022-10-31T09:31:36;100205.41;;;18.64;62.74
15678;BME280;7939;50.814;6.368;2022-10-31T09:34:02;100200.16;;;18.67;62.92
15678;BME280;7939;50.814;6.368;2022-10-31T09:36:29;100188.94;;;18.68;63.14
15678;BME280;7939;50.814;6.368;2022-10-31T09:38:56;100184.63;;;18.68;63.45
15678;BME280;7939;50.814;6.368;2022-10-31T09:41:26;100180.28;;;18.69;63.16
15678;BME280;7939;50.814;6.368;2022-10-31T09:43:59;100184.56;;;18.70;63.14
15678;BME280;7939;50.814;6.368;2022-10-31T09:46:34;100179.34;;;18.71;62.77
15678;BME280;7939;50.814;6.368;2022-10-31T09:49:28;100173.25;;;18.72;63.30
15678;BME280;7939;50.814;6.368;2022-10-31T09:52:01;100172.41;;;18.73;62.88
15678;BME280;7939;50.814;6.368;2022-10-31T09:54:34;100173.19;;;18.75;63.48
15678;BME280;7939;50.814;6.368;2022-10-31T09:57:03;100166.31;;;18.74;63.32
15678;BME280;7939;50.814;6.368;2022-10-31T09:59:34;100154.97;;;18.78;63.40
15678;BME280;7939;50.814;6.368;2022-10-31T10:02:04;100147.13;;;18.81;62.75
15678;BME280;7939;50.814;6.368;2022-10-31T10:04:39;100144.53;;;18.81;62.97
15678;BME280;7939;50.814;6.368;2022-10-31T10:07:16;100135.84;;;18.84;62.73
15678;BME280;7939;50.814;6.368;2022-10-31T10:09:44;100132.31;;;18.86;63.50
15678;BME280;7939;50.814;6.368;2022-10-31T10:12:17;100126.19;;;18.89;63.29
15678;BME280;7939;50.814;6.368;2022-10-31T10:14:54;100129.59;;;18.91;63.34
15678;BME280;7939;50.814;6.368;2022-10-31T10:17:35;100140.72;;;18.95;62.66
15678;BME280;7939;50.814;6.368;2022-10-31T10:20:16;100143.19;;;18.98;62.86
15678;BME280;7939;50.814;6.368;2022-10-31T10:22:49;100142.22;;;19.02;62.82
15678;BME280;7939;50.814;6.368;2022-10-31T10:25:22;100149.94;;;19.05;62.41
15678;BME280;7939;50.814;6.368;2022-10-31T10:27:56;100147.22;;;19.08;62.60
15678;BME280;7939;50.814;6.368;2022-10-31T10:30:30;100147.16;;;19.11;62.56
15678;BME280;7939;50.814;6.368;2022-10-31T10:33:02;100148.81;;;19.13;62.01
15678;BME280;7939;50.814;6.368;2022-10-31T10:35:33;100138.38;;;19.15;62.31
15678;BME280;7939;50.814;6.368;2022-10-31T10:38:03;100141.81;;;19.17;62.12
15678;BME280;7939;50.814;6.368;2022-10-31T10:40:35;100141.75;;;19.19;61.78
15678;BME280;7939;50.814;6.368;2022-10-31T10:43:22;100140.78;;;19.21;61.84
15678;BME280;7939;50.814;6.368;2022-10-31T10:45:56;100138.13;;;19.24;61.52
15678;BME280;7939;50.814;6.368;2022-10-31T10:48:49;100138.13;;;19.24;62.12
15678;BME280;7939;50.814;6.368;2022-10-31T10:51:23;100148.44;;;19.26;61.91
15678;BME280;7939;50.814;6.368;2022-10-31T10:54:02;100142.28;;;19.30;61.73
15678;BME280;7939;50.814;6.368;2022-10-31T10:56:51;100144.00;;;19.29;61.67
15678;BME280;7939;50.814;6.368;2022-10-31T10:59:21;100135.31;;;19.32;61.46
15678;BME280;7939;50.814;6.368;2022-10-31T11:01:49;100127.53;;;19.32;61.52
15678;BME280;7939;50.814;6.368;2022-10-31T11:04:30;100121.44;;;19.33;61.86
15678;BME280;7939;50.814;6.368;2022-10-31T11:06:59;100113.63;;;19.34;61.47
15678;BME280;7939;50.814;6.368;2022-10-31T11:09:26;100110.13;;;19.35;61.75
15678;BME280;7939;50.814;6.368;2022-10-31T11:11:54;100106.59;;;19.38;61.35
15678;BME280;7939;50.814;6.368;2022-10-31T11:14:22;100097.09;;;19.38;61.79
15678;BME280;7939;50.814;6.368;2022-10-31T11:16:51;100091.84;;;19.40;61.72
15678;BME280;7939;50.814;6.368;2022-10-31T11:19:21;100087.50;;;19.40;61.88
15678;BME280;7939;50.814;6.368;2022-10-31T11:21:49;100091.78;;;19.41;61.91
15678;BME280;7939;50.814;6.368;2022-10-31T11:24:19;100095.22;;;19.44;61.42
15678;BME280;7939;50.814;6.368;2022-10-31T11:26:47;100084.78;;;19.45;61.23
15678;BME280;7939;50.814;6.368;2022-10-31T11:29:16;100089.91;;;19.47;61.77
15678;BME280;7939;50.814;6.368;2022-10-31T11:31:45;100079.50;;;19.48;61.27
15678;BME280;7939;50.814;6.368;2022-10-31T11:34:18;100063.06;;;19.49;61.77
15678;BME280;7939;50.814;6.368;2022-10-31T11:36:46;100056.97;;;19.50;61.17
15678;BME280;7939;50.814;6.368;2022-10-31T11:39:19;100040.53;;;19.51;61.68
15678;BME280;7939;50.814;6.368;2022-10-31T11:41:47;100050.00;;;19.52;61.43
15678;BME280;7939;50.814;6.368;2022-10-31T11:44:17;100041.31;;;19.53;61.58
15678;BME280;7939;50.814;6.368;2022-10-31T11:46:47;100040.41;;;19.54;61.53
15678;BME280;7939;50.814;6.368;2022-10-31T11:49:16;100036.94;;;19.55;61.41
15678;BME280;7939;50.814;6.368;2022-10-31T11:51:47;100035.19;;;19.56;61.04
15678;BME280;7939;50.814;6.368;2022-10-31T11:54:22;100032.53;;;19.59;61.29
15678;BME280;7939;50.814;6.368;2022-10-31T11:56:49;100028.13;;;19.61;61.43
15678;BME280;7939;50.814;6.368;2022-10-31T11:59:27;100016.91;;;19.60;61.05
15678;BME280;7939;50.814;6.368;2022-10-31T12:01:57;100019.47;;;19.62;61.67
15678;BME280;7939;50.814;6.368;2022-10-31T12:04:29;100020.25;;;19.64;61.16
15678;BME280;7939;50.814;6.368;2022-10-31T12:06:57;100007.22;;;19.65;61.41
15678;BME280;7939;50.814;6.368;2022-10-31T12:09:27;100007.22;;;19.65;61.62
15678;BME280;7939;50.814;6.368;2022-10-31T12:14:53;100005.47;;;19.67;61.76
15678;BME280;7939;50.814;6.368;2022-10-31T12:17:28;99995.09;;;19.67;61.54
15678;BME280;7939;50.814;6.368;2022-10-31T12:20:03;99983.06;;;19.65;61.58
15678;BME280;7939;50.814;6.368;2022-10-31T12:22:39;99967.56;;;19.63;61.52
15678;BME280;7939;50.814;6.368;2022-10-31T12:25:17;99973.59;;;19.64;61.44
15678;BME280;7939;50.814;6.368;2022-10-31T12:27:59;99968.34;;;19.65;61.95
15678;BME280;7939;50.814;6.368;2022-10-31T12:30:40;99951.00;;;19.67;61.79
15678;BME280;7939;50.814;6.368;2022-10-31T12:33:34;99944.06;;;19.68;61.47
15678;BME280;7939;50.814;6.368;2022-10-31T12:36:15;99928.50;;;19.68;61.50
15678;BME280;7939;50.814;6.368;2022-10-31T12:38:58;99930.25;;;19.67;61.77
15678;BME280;7939;50.814;6.368;2022-10-31T12:41:44;99941.50;;;19.66;61.57
15678;BME280;7939;50.814;6.368;2022-10-31T12:44:21;99950.13;;;19.67;61.61
15678;BME280;7939;50.814;6.368;2022-10-31T12:47:00;99948.41;;;19.67;61.41
15678;BME280;7939;50.814;6.368;2022-10-31T12:49:39;99936.31;;;19.66;61.26
15678;BME280;7939;50.814;6.368;2022-10-31T12:52:21;99941.50;;;19.66;61.86
15678;BME280;7939;50.814;6.368;2022-10-31T12:55:03;99940.66;;;19.66;61.62
15678;BME280;7939;50.814;6.368;2022-10-31T12:57:36;99943.25;;;19.66;61.50
15678;BME280;7939;50.814;6.368;2022-10-31T13:00:12;99937.22;;;19.65;61.67
15678;BME280;7939;50.814;6.368;2022-10-31T13:02:43;99937.22;;;19.65;61.66
15678;BME280;7939;50.814;6.368;2022-10-31T13:05:26;99927.66;;;19.67;61.74
15678;BME280;7939;50.814;6.368;2022-10-31T13:07:58;99918.19;;;19.66;61.83
15678;BME280;7939;50.814;6.368;2022-10-31T13:10:30;99912.16;;;19.66;61.61
15678;BME280;7939;50.814;6.368;2022-10-31T13:13:06;99911.31;;;19.65;61.58
15678;BME280;7939;50.814;6.368;2022-10-31T13:15:41;99897.50;;;19.65;61.76
15678;BME280;7939;50.814;6.368;2022-10-31T13:18:15;99902.69;;;19.65;61.39